createdAt,value
2017-08-27T00:00:20.409Z,17.13
2017-08-27T00:01:20.385Z,17.09
2017-08-27T00:02:20.426Z,17.12
2017-08-27T00:03:20.913Z,17.04
2017-08-27T00:04:20.361Z,17.03
2017-08-27T00:05:20.366Z,17.01
2017-08-27T00:06:20.328Z,17.04
2017-08-27T00:07:20.367Z,17.04
2017-08-27T00:08:20.451Z,17.03
2017-08-27T00:09:21.086Z,17.04
2017-08-27T00:10:20.411Z,17.05
2017-08-27T00:11:20.294Z,17.12
2017-08-27T00:12:20.460Z,17.20
2017-08-27T00:13:20.365Z,17.29
2017-08-27T00:14:20.379Z,17.31
2017-08-27T00:15:20.285Z,17.28
2017-08-27T00:16:20.398Z,17.27
2017-08-27T00:17:20.969Z,17.21
2017-08-27T00:18:21.302Z,17.19
2017-08-27T00:19:20.804Z,17.12
2017-08-27T00:20:20.897Z,17.01
2017-08-27T00:21:20.349Z,16.94
2017-08-27T00:22:20.371Z,16.89
2017-08-27T00:23:20.361Z,16.80
2017-08-27T00:24:20.336Z,16.76
2017-08-27T00:25:20.326Z,16.68
2017-08-27T00:26:20.304Z,16.60
2017-08-27T00:27:21.009Z,16.56
2017-08-27T00:28:20.968Z,16.56
2017-08-27T00:29:21.815Z,16.61
2017-08-27T00:30:20.374Z,16.61
2017-08-27T00:31:20.426Z,16.60
2017-08-27T00:32:20.574Z,16.62
2017-08-27T00:33:20.831Z,16.61
2017-08-27T00:34:20.823Z,16.60
2017-08-27T00:35:21.323Z,16.62
2017-08-27T00:36:20.316Z,16.64
2017-08-27T00:37:21.827Z,16.69
2017-08-27T00:38:20.829Z,16.65
2017-08-27T00:39:20.835Z,16.62
2017-08-27T00:40:20.336Z,16.59
2017-08-27T00:41:21.011Z,16.55
2017-08-27T00:42:21.338Z,16.53
2017-08-27T00:43:20.576Z,16.52
2017-08-27T00:44:20.305Z,16.47
2017-08-27T00:45:20.967Z,16.45
2017-08-27T00:46:20.384Z,16.45
2017-08-27T00:47:20.878Z,16.45
2017-08-27T00:48:20.401Z,16.51
2017-08-27T00:49:20.931Z,16.52
2017-08-27T00:50:20.371Z,16.54
2017-08-27T00:51:20.325Z,16.62
2017-08-27T00:52:20.381Z,16.59
2017-08-27T00:53:20.431Z,16.69
2017-08-27T00:54:21.047Z,16.71
2017-08-27T00:55:20.413Z,16.75
2017-08-27T00:56:20.273Z,16.76
2017-08-27T00:57:20.242Z,16.75
2017-08-27T00:58:20.861Z,16.72
2017-08-27T00:59:20.327Z,16.62
2017-08-27T01:00:20.314Z,16.50
2017-08-27T01:01:20.981Z,16.48
2017-08-27T01:02:20.353Z,16.43
2017-08-27T01:03:21.422Z,16.39
2017-08-27T01:04:20.314Z,16.43
2017-08-27T01:05:20.327Z,16.38
2017-08-27T01:06:20.305Z,16.29
2017-08-27T01:07:20.380Z,16.25
2017-08-27T01:08:20.304Z,16.22
2017-08-27T01:09:22.876Z,16.19
2017-08-27T01:10:20.385Z,16.19
2017-08-27T01:11:20.294Z,16.18
2017-08-27T01:12:20.278Z,16.18
2017-08-27T01:13:20.368Z,16.20
2017-08-27T01:14:20.362Z,16.19
2017-08-27T01:15:20.326Z,16.20
2017-08-27T01:16:20.887Z,16.19
2017-08-27T01:17:20.892Z,16.19
2017-08-27T01:18:20.296Z,16.20
2017-08-27T01:19:20.330Z,16.20
2017-08-27T01:20:20.740Z,16.17
2017-08-27T01:21:21.048Z,16.18
2017-08-27T01:22:20.323Z,16.23
2017-08-27T01:23:20.899Z,16.23
2017-08-27T01:24:20.312Z,16.22
2017-08-27T01:25:20.269Z,16.20
2017-08-27T01:26:20.903Z,16.14
2017-08-27T01:27:20.282Z,16.14
2017-08-27T01:28:20.907Z,16.17
2017-08-27T01:29:20.328Z,16.12
2017-08-27T01:30:20.318Z,16.12
2017-08-27T01:31:20.323Z,16.12
2017-08-27T01:32:20.330Z,16.14
2017-08-27T01:33:20.394Z,16.15
2017-08-27T01:34:20.372Z,16.12
2017-08-27T01:35:20.315Z,16.05
2017-08-27T01:36:20.348Z,16.04
2017-08-27T01:37:20.991Z,16.10
2017-08-27T01:38:20.292Z,16.15
2017-08-27T01:39:22.042Z,16.17
2017-08-27T01:40:20.394Z,16.22
2017-08-27T01:41:20.330Z,16.22
2017-08-27T01:42:20.929Z,16.20
2017-08-27T01:43:20.280Z,16.20
2017-08-27T01:44:20.396Z,16.27
2017-08-27T01:45:20.276Z,16.23
2017-08-27T01:46:20.948Z,16.28
2017-08-27T01:47:20.289Z,16.25
2017-08-27T01:48:20.942Z,16.23
2017-08-27T01:49:21.027Z,16.27
2017-08-27T01:50:20.288Z,16.30
2017-08-27T01:51:20.312Z,16.21
2017-08-27T01:52:21.946Z,16.15
2017-08-27T01:53:20.317Z,16.12
2017-08-27T01:54:20.328Z,16.17
2017-08-27T01:55:20.316Z,16.11
2017-08-27T01:56:20.271Z,16.05
2017-08-27T01:57:20.349Z,16.04
2017-08-27T01:58:20.339Z,15.98
2017-08-27T01:59:21.145Z,15.97
2017-08-27T02:00:20.370Z,15.93
2017-08-27T02:01:20.229Z,15.89
2017-08-27T02:02:20.397Z,15.90
2017-08-27T02:03:20.299Z,15.94
2017-08-27T02:04:20.354Z,15.89
2017-08-27T02:05:20.979Z,15.92
2017-08-27T02:06:20.238Z,15.89
2017-08-27T02:07:20.987Z,15.89
2017-08-27T02:08:20.974Z,15.85
2017-08-27T02:09:20.388Z,15.85
2017-08-27T02:10:20.318Z,15.84
2017-08-27T02:11:21.065Z,15.84
2017-08-27T02:12:20.318Z,15.85
2017-08-27T02:13:20.324Z,15.81
2017-08-27T02:14:20.313Z,15.84
2017-08-27T02:15:20.718Z,15.81
2017-08-27T02:16:20.324Z,15.88
2017-08-27T02:17:20.228Z,15.88
2017-08-27T02:18:20.283Z,15.93
2017-08-27T02:19:20.325Z,15.94
2017-08-27T02:20:21.051Z,15.92
2017-08-27T02:21:20.277Z,15.93
2017-08-27T02:22:21.132Z,15.92
2017-08-27T02:23:20.272Z,15.94
2017-08-27T02:24:20.303Z,15.93
2017-08-27T02:25:20.999Z,15.86
2017-08-27T02:26:20.264Z,15.84
2017-08-27T02:27:20.273Z,15.85
2017-08-27T02:28:21.025Z,15.86
2017-08-27T02:29:20.319Z,15.89
2017-08-27T02:30:20.325Z,15.85
2017-08-27T02:31:21.011Z,15.79
2017-08-27T02:32:20.430Z,15.71
2017-08-27T02:33:21.009Z,15.64
2017-08-27T02:34:21.011Z,15.61
2017-08-27T02:35:20.248Z,15.64
2017-08-27T02:36:20.295Z,15.64
2017-08-27T02:37:21.015Z,15.65
2017-08-27T02:38:20.328Z,15.67
2017-08-27T02:39:21.176Z,15.69
2017-08-27T02:40:20.335Z,15.76
2017-08-27T02:41:20.282Z,15.81
2017-08-27T02:42:21.180Z,15.81
2017-08-27T02:43:20.261Z,15.81
2017-08-27T02:44:21.034Z,15.81
2017-08-27T02:45:20.265Z,15.81
2017-08-27T02:46:20.289Z,15.76
2017-08-27T02:47:20.293Z,15.71
2017-08-27T02:48:20.299Z,15.68
2017-08-27T02:49:20.286Z,15.64
2017-08-27T02:50:20.352Z,15.56
2017-08-27T02:51:21.538Z,15.52
2017-08-27T02:52:21.059Z,15.46
2017-08-27T02:53:20.266Z,15.40
2017-08-27T02:54:21.043Z,15.36
2017-08-27T02:55:23.045Z,15.40
2017-08-27T02:56:21.052Z,15.40
2017-08-27T02:57:21.145Z,15.35
2017-08-27T02:58:20.260Z,15.39
2017-08-27T02:59:20.265Z,15.36
2017-08-27T03:00:20.261Z,15.34
2017-08-27T03:01:20.248Z,15.31
2017-08-27T03:02:20.315Z,15.28
2017-08-27T03:03:20.286Z,15.27
2017-08-27T03:04:21.057Z,15.27
2017-08-27T03:05:22.081Z,15.30
2017-08-27T03:06:20.327Z,15.27
2017-08-27T03:07:20.273Z,15.28
2017-08-27T03:08:20.258Z,15.35
2017-08-27T03:09:20.298Z,15.36
2017-08-27T03:10:20.312Z,15.35
2017-08-27T03:11:20.275Z,15.35
2017-08-27T03:12:20.273Z,15.32
2017-08-27T03:13:20.333Z,15.32
2017-08-27T03:14:21.077Z,15.28
2017-08-27T03:15:20.301Z,15.23
2017-08-27T03:16:20.264Z,15.18
2017-08-27T03:17:20.318Z,15.22
2017-08-27T03:18:20.215Z,15.18
2017-08-27T03:19:20.277Z,15.14
2017-08-27T03:20:20.275Z,15.17
2017-08-27T03:21:20.341Z,15.23
2017-08-27T03:22:20.270Z,15.36
2017-08-27T03:23:20.304Z,15.43
2017-08-27T03:24:20.318Z,15.38
2017-08-27T03:25:21.091Z,15.50
2017-08-27T03:26:21.170Z,15.52
2017-08-27T03:27:21.319Z,15.44
2017-08-27T03:28:21.096Z,15.48
2017-08-27T03:29:20.260Z,15.50
2017-08-27T03:30:20.208Z,15.52
2017-08-27T03:31:21.194Z,15.50
2017-08-27T03:32:20.360Z,15.50
2017-08-27T03:33:20.287Z,15.50
2017-08-27T03:34:20.271Z,15.40
2017-08-27T03:35:21.108Z,15.43
2017-08-27T03:36:21.113Z,15.44
2017-08-27T03:37:21.108Z,15.44
2017-08-27T03:38:20.179Z,15.46
2017-08-27T03:39:20.282Z,15.50
2017-08-27T03:40:21.115Z,15.52
2017-08-27T03:41:20.205Z,15.52
2017-08-27T03:42:20.325Z,15.46
2017-08-27T03:43:20.218Z,15.43
2017-08-27T03:44:20.292Z,15.35
2017-08-27T03:45:20.280Z,15.27
2017-08-27T03:46:20.266Z,15.18
2017-08-27T03:47:20.357Z,15.11
2017-08-27T03:48:20.774Z,15.09
2017-08-27T03:49:20.214Z,15.03
2017-08-27T03:50:20.708Z,15.01
2017-08-27T03:51:21.130Z,14.96
2017-08-27T03:52:21.727Z,14.98
2017-08-27T03:53:20.296Z,14.98
2017-08-27T03:54:20.684Z,14.98
2017-08-27T03:55:20.237Z,14.97
2017-08-27T03:56:20.651Z,14.94
2017-08-27T03:57:20.276Z,14.92
2017-08-27T03:58:20.241Z,14.88
2017-08-27T03:59:20.342Z,14.88
2017-08-27T04:00:20.773Z,14.84
2017-08-27T04:01:20.218Z,14.84
2017-08-27T04:02:20.219Z,14.85
2017-08-27T04:03:20.351Z,14.79
2017-08-27T04:04:20.206Z,14.77
2017-08-27T04:05:20.218Z,14.77
2017-08-27T04:06:20.298Z,14.81
2017-08-27T04:07:20.167Z,14.85
2017-08-27T04:08:20.265Z,14.89
2017-08-27T04:09:20.269Z,14.92
2017-08-27T04:10:20.352Z,15.02
2017-08-27T04:11:20.240Z,15.05
2017-08-27T04:12:20.671Z,15.06
2017-08-27T04:13:20.470Z,15.00
2017-08-27T04:14:20.830Z,14.86
2017-08-27T04:15:20.781Z,14.81
2017-08-27T04:16:20.679Z,14.79
2017-08-27T04:17:20.294Z,14.72
2017-08-27T04:18:20.494Z,14.64
2017-08-27T04:19:20.247Z,14.64
2017-08-27T04:20:20.192Z,14.73
2017-08-27T04:21:20.776Z,14.73
2017-08-27T04:22:20.176Z,14.68
2017-08-27T04:23:20.681Z,14.67
2017-08-27T04:24:20.760Z,14.69
2017-08-27T04:25:20.693Z,14.63
2017-08-27T04:26:20.294Z,14.56
2017-08-27T04:27:20.300Z,14.60
2017-08-27T04:28:20.516Z,14.56
2017-08-27T04:29:20.183Z,14.56
2017-08-27T04:30:21.191Z,14.56
2017-08-27T04:31:20.247Z,14.59
2017-08-27T04:32:20.327Z,14.60
2017-08-27T04:33:20.896Z,14.60
2017-08-27T04:34:21.210Z,14.59
2017-08-27T04:35:20.250Z,14.64
2017-08-27T04:36:20.165Z,14.72
2017-08-27T04:37:20.298Z,14.77
2017-08-27T04:38:20.422Z,14.76
2017-08-27T04:39:20.829Z,14.81
2017-08-27T04:40:20.201Z,14.85
2017-08-27T04:41:20.850Z,14.86
2017-08-27T04:42:20.257Z,14.89
2017-08-27T04:43:20.175Z,14.93
2017-08-27T04:44:20.717Z,14.96
2017-08-27T04:45:20.265Z,14.96
2017-08-27T04:46:20.316Z,14.98
2017-08-27T04:47:20.719Z,14.97
2017-08-27T04:48:20.254Z,14.97
2017-08-27T04:49:21.220Z,14.97
2017-08-27T04:50:20.353Z,14.93
2017-08-27T04:51:20.154Z,14.90
2017-08-27T04:52:20.221Z,14.85
2017-08-27T04:53:22.236Z,14.85
2017-08-27T04:54:20.730Z,14.86
2017-08-27T04:55:20.158Z,14.94
2017-08-27T04:56:21.731Z,15.06
2017-08-27T04:57:20.265Z,15.11
2017-08-27T04:58:20.298Z,15.21
2017-08-27T04:59:20.382Z,15.23
2017-08-27T05:00:20.222Z,15.27
2017-08-27T05:01:20.210Z,15.36
2017-08-27T05:02:20.222Z,15.34
2017-08-27T05:03:20.229Z,15.23
2017-08-27T05:04:20.745Z,15.17
2017-08-27T05:05:20.875Z,15.15
2017-08-27T05:06:20.206Z,15.14
2017-08-27T05:07:20.234Z,15.11
2017-08-27T05:08:20.255Z,15.07
2017-08-27T05:09:20.249Z,15.10
2017-08-27T05:10:20.185Z,15.17
2017-08-27T05:11:20.305Z,15.26
2017-08-27T05:12:20.777Z,15.31
2017-08-27T05:13:20.198Z,15.39
2017-08-27T05:14:21.264Z,15.43
2017-08-27T05:15:20.230Z,15.48
2017-08-27T05:16:20.763Z,15.55
2017-08-27T05:17:20.259Z,15.64
2017-08-27T05:18:20.916Z,15.69
2017-08-27T05:19:20.319Z,15.77
2017-08-27T05:20:21.774Z,15.82
2017-08-27T05:21:20.196Z,15.97
2017-08-27T05:22:20.194Z,16.02
2017-08-27T05:23:20.906Z,16.05
2017-08-27T05:24:20.209Z,16.12
2017-08-27T05:25:21.278Z,16.14
2017-08-27T05:26:20.325Z,16.17
2017-08-27T05:27:20.920Z,16.17
2017-08-27T05:28:20.783Z,16.12
2017-08-27T05:29:20.782Z,16.13
2017-08-27T05:30:20.260Z,16.20
2017-08-27T05:31:20.255Z,16.20
2017-08-27T05:32:20.242Z,16.21
2017-08-27T05:33:20.310Z,16.25
2017-08-27T05:34:20.195Z,16.29
2017-08-27T05:35:20.245Z,16.34
2017-08-27T05:36:20.893Z,16.37
2017-08-27T05:37:20.895Z,16.45
2017-08-27T05:38:20.213Z,16.54
2017-08-27T05:39:20.262Z,16.60
2017-08-27T05:40:20.227Z,16.70
2017-08-27T05:41:20.959Z,16.70
2017-08-27T05:42:20.204Z,16.78
2017-08-27T05:43:20.150Z,16.85
2017-08-27T05:44:20.290Z,16.92
2017-08-27T05:45:20.935Z,17.00
2017-08-27T05:46:20.241Z,17.04
2017-08-27T05:47:20.810Z,17.12
2017-08-27T05:48:20.215Z,17.18
2017-08-27T05:49:20.820Z,17.17
2017-08-27T05:50:20.283Z,17.14
2017-08-27T05:51:20.155Z,17.19
2017-08-27T05:52:20.203Z,17.23
2017-08-27T05:53:20.232Z,17.25
2017-08-27T05:54:20.141Z,17.23
2017-08-27T05:55:20.188Z,17.29
2017-08-27T05:56:20.826Z,17.27
2017-08-27T05:57:20.949Z,17.27
2017-08-27T05:58:20.173Z,17.28
2017-08-27T05:59:20.125Z,17.31
2017-08-27T06:00:20.835Z,17.32
2017-08-27T06:01:21.021Z,17.38
2017-08-27T06:02:20.227Z,17.44
2017-08-27T06:03:20.178Z,17.52
2017-08-27T06:04:20.180Z,17.59
2017-08-27T06:05:20.141Z,17.68
2017-08-27T06:06:20.311Z,17.76
2017-08-27T06:07:20.205Z,17.79
2017-08-27T06:08:20.855Z,17.81
2017-08-27T06:09:20.184Z,17.86
2017-08-27T06:10:21.032Z,17.93
2017-08-27T06:11:20.850Z,18.00
2017-08-27T06:12:20.196Z,18.07
2017-08-27T06:13:20.852Z,18.12
2017-08-27T06:14:20.231Z,18.17
2017-08-27T06:15:20.130Z,18.22
2017-08-27T06:16:20.856Z,18.26
2017-08-27T06:17:20.889Z,18.29
2017-08-27T06:18:20.170Z,18.31
2017-08-27T06:19:20.176Z,18.32
2017-08-27T06:20:20.189Z,18.35
2017-08-27T06:21:22.045Z,18.39
2017-08-27T06:22:20.164Z,18.40
2017-08-27T06:23:20.166Z,18.42
2017-08-27T06:24:20.218Z,18.45
2017-08-27T06:25:20.934Z,18.47
2017-08-27T06:26:20.164Z,18.46
2017-08-27T06:27:20.169Z,18.48
2017-08-27T06:28:20.222Z,18.48
2017-08-27T06:29:20.135Z,18.47
2017-08-27T06:30:21.011Z,18.47
2017-08-27T06:31:20.239Z,18.46
2017-08-27T06:32:20.148Z,18.45
2017-08-27T06:33:20.225Z,18.46
2017-08-27T06:34:20.228Z,18.50
2017-08-27T06:35:21.005Z,18.53
2017-08-27T06:36:20.587Z,18.57
2017-08-27T06:37:21.021Z,18.65
2017-08-27T06:38:20.142Z,18.72
2017-08-27T06:39:20.903Z,18.79
2017-08-27T06:40:20.192Z,18.86
2017-08-27T06:41:20.181Z,18.96
2017-08-27T06:42:20.165Z,19.06
2017-08-27T06:43:20.239Z,19.13
2017-08-27T06:44:20.103Z,19.19
2017-08-27T06:45:21.932Z,19.27
2017-08-27T06:46:20.155Z,19.35
2017-08-27T06:47:20.207Z,19.43
2017-08-27T06:48:20.928Z,19.50
2017-08-27T06:49:20.134Z,19.59
2017-08-27T06:50:21.034Z,19.67
2017-08-27T06:51:20.151Z,19.72
2017-08-27T06:52:20.179Z,19.71
2017-08-27T06:53:20.120Z,19.71
2017-08-27T06:54:20.193Z,19.77
2017-08-27T06:55:20.130Z,19.84
2017-08-27T06:56:21.058Z,19.88
2017-08-27T06:57:20.197Z,19.95
2017-08-27T06:58:21.138Z,19.97
2017-08-27T06:59:20.091Z,20.04
2017-08-27T07:00:21.058Z,20.05
2017-08-27T07:01:20.106Z,20.10
2017-08-27T07:02:20.318Z,20.14
2017-08-27T07:03:20.188Z,20.20
2017-08-27T07:04:20.142Z,20.25
2017-08-27T07:05:20.195Z,20.31
2017-08-27T07:06:20.104Z,20.34
2017-08-27T07:07:20.195Z,20.30
2017-08-27T07:08:20.224Z,20.20
2017-08-27T07:09:20.175Z,20.15
2017-08-27T07:10:21.057Z,20.12
2017-08-27T07:11:20.168Z,20.12
2017-08-27T07:12:20.950Z,20.04
2017-08-27T07:13:20.102Z,20.04
2017-08-27T07:14:20.956Z,20.01
2017-08-27T07:15:20.959Z,20.06
2017-08-27T07:16:20.126Z,20.09
2017-08-27T07:17:20.357Z,20.12
2017-08-27T07:18:20.115Z,20.12
2017-08-27T07:19:20.105Z,20.09
2017-08-27T07:20:20.164Z,20.10
2017-08-27T07:21:20.126Z,20.13
2017-08-27T07:22:20.158Z,20.20
2017-08-27T07:23:20.101Z,20.23
2017-08-27T07:24:20.159Z,20.22
2017-08-27T07:25:20.172Z,20.20
2017-08-27T07:26:20.143Z,20.12
2017-08-27T07:27:21.075Z,20.23
2017-08-27T07:28:20.149Z,20.40
2017-08-27T07:29:20.661Z,20.45
2017-08-27T07:30:20.197Z,20.56
2017-08-27T07:31:20.136Z,20.70
2017-08-27T07:32:20.985Z,20.95
2017-08-27T07:33:20.217Z,21.20
2017-08-27T07:34:20.988Z,21.38
2017-08-27T07:35:20.143Z,21.60
2017-08-27T07:36:20.198Z,21.90
2017-08-27T07:37:20.213Z,22.03
2017-08-27T07:38:20.113Z,22.20
2017-08-27T07:39:20.221Z,22.31
2017-08-27T07:40:20.101Z,22.34
2017-08-27T07:41:20.216Z,22.22
2017-08-27T07:42:20.134Z,22.37
2017-08-27T07:43:20.204Z,22.52
2017-08-27T07:44:21.004Z,22.48
2017-08-27T07:45:20.169Z,22.44
2017-08-27T07:46:20.154Z,22.37
2017-08-27T07:47:20.552Z,22.54
2017-08-27T07:48:22.032Z,22.60
2017-08-27T07:49:20.511Z,22.68
2017-08-27T07:50:22.013Z,22.71
2017-08-27T07:51:20.136Z,22.85
2017-08-27T07:52:20.107Z,22.94
2017-08-27T07:53:20.231Z,23.05
2017-08-27T07:54:20.589Z,23.17
2017-08-27T07:55:21.527Z,23.10
2017-08-27T07:56:20.098Z,22.97
2017-08-27T07:57:20.165Z,22.81
2017-08-27T07:58:20.207Z,22.62
2017-08-27T07:59:20.154Z,22.54
2017-08-27T08:00:20.533Z,22.52
2017-08-27T08:01:21.533Z,22.43
2017-08-27T08:02:20.216Z,22.36
2017-08-27T08:03:20.284Z,22.29
2017-08-27T08:04:20.582Z,22.20
2017-08-27T08:05:20.148Z,22.27
2017-08-27T08:06:20.648Z,22.29
2017-08-27T08:07:20.213Z,22.30
2017-08-27T08:08:20.101Z,22.32
2017-08-27T08:09:20.587Z,22.37
2017-08-27T08:10:20.112Z,22.32
2017-08-27T08:11:21.051Z,22.34
2017-08-27T08:12:20.234Z,22.37
2017-08-27T08:13:20.553Z,22.35
2017-08-27T08:14:20.358Z,22.42
2017-08-27T08:15:20.440Z,22.44
2017-08-27T08:16:20.560Z,22.40
2017-08-27T08:17:20.158Z,22.45
2017-08-27T08:18:20.163Z,22.45
2017-08-27T08:19:20.124Z,22.44
2017-08-27T08:20:20.568Z,22.56
2017-08-27T08:21:20.567Z,22.59
2017-08-27T08:22:20.069Z,22.62
2017-08-27T08:23:20.193Z,22.65
2017-08-27T08:24:20.139Z,22.70
2017-08-27T08:25:20.277Z,22.60
2017-08-27T08:26:20.119Z,22.54
2017-08-27T08:27:20.596Z,22.54
2017-08-27T08:28:20.583Z,22.44
2017-08-27T08:29:21.139Z,22.38
2017-08-27T08:30:20.114Z,22.35
2017-08-27T08:31:20.150Z,22.31
2017-08-27T08:32:20.106Z,22.38
2017-08-27T08:33:20.148Z,22.47
2017-08-27T08:34:20.183Z,22.50
2017-08-27T08:35:20.110Z,22.54
2017-08-27T08:36:20.214Z,22.52
2017-08-27T08:37:21.095Z,22.56
2017-08-27T08:38:20.595Z,22.64
2017-08-27T08:39:20.624Z,22.72
2017-08-27T08:40:20.600Z,22.73
2017-08-27T08:41:20.713Z,22.80
2017-08-27T08:42:20.605Z,22.97
2017-08-27T08:43:20.059Z,23.05
2017-08-27T08:44:20.200Z,23.00
2017-08-27T08:45:20.099Z,22.79
2017-08-27T08:46:20.750Z,22.70
2017-08-27T08:47:21.111Z,22.61
2017-08-27T08:48:20.745Z,22.69
2017-08-27T08:49:20.828Z,22.70
2017-08-27T08:50:20.109Z,22.76
2017-08-27T08:51:20.101Z,22.76
2017-08-27T08:52:20.132Z,22.78
2017-08-27T08:53:20.123Z,22.77
2017-08-27T08:54:20.149Z,22.78
2017-08-27T08:55:20.209Z,22.78
2017-08-27T08:56:20.171Z,22.81
2017-08-27T08:57:20.640Z,22.80
2017-08-27T08:58:20.154Z,22.82
2017-08-27T08:59:20.104Z,22.92
2017-08-27T09:00:20.638Z,22.98
2017-08-27T09:01:20.115Z,23.06
2017-08-27T09:02:20.068Z,23.10
2017-08-27T09:03:20.784Z,23.12
2017-08-27T09:04:20.722Z,23.15
2017-08-27T09:05:20.141Z,23.29
2017-08-27T09:06:20.094Z,23.38
2017-08-27T09:07:20.144Z,23.48
2017-08-27T09:08:21.150Z,23.40
2017-08-27T09:09:20.114Z,23.28
2017-08-27T09:10:20.246Z,23.25
2017-08-27T09:11:20.653Z,23.30
2017-08-27T09:12:20.150Z,23.39
2017-08-27T09:13:20.164Z,23.46
2017-08-27T09:14:20.113Z,23.47
2017-08-27T09:15:20.343Z,23.46
2017-08-27T09:16:20.102Z,23.37
2017-08-27T09:17:20.123Z,23.32
2017-08-27T09:18:20.121Z,23.38
2017-08-27T09:19:20.096Z,23.37
2017-08-27T09:20:20.677Z,23.35
2017-08-27T09:21:21.172Z,23.29
2017-08-27T09:22:20.183Z,23.28
2017-08-27T09:23:20.038Z,23.20
2017-08-27T09:24:20.031Z,23.12
2017-08-27T09:25:20.704Z,23.03
2017-08-27T09:26:20.107Z,22.89
2017-08-27T09:27:21.210Z,22.90
2017-08-27T09:28:20.142Z,22.87
2017-08-27T09:29:20.146Z,22.92
2017-08-27T09:30:20.109Z,22.96
2017-08-27T09:31:20.691Z,23.03
2017-08-27T09:32:20.880Z,23.06
2017-08-27T09:33:20.134Z,23.12
2017-08-27T09:34:20.699Z,23.29
2017-08-27T09:35:20.052Z,23.39
2017-08-27T09:36:20.813Z,23.52
2017-08-27T09:37:20.811Z,23.60
2017-08-27T09:38:20.130Z,23.78
2017-08-27T09:39:21.201Z,23.95
2017-08-27T09:40:20.132Z,24.04
2017-08-27T09:41:20.120Z,24.15
2017-08-27T09:42:20.110Z,24.29
2017-08-27T09:43:20.172Z,24.50
2017-08-27T09:44:20.102Z,24.68
2017-08-27T09:45:20.790Z,24.78
2017-08-27T09:46:20.106Z,24.90
2017-08-27T09:47:20.859Z,25.03
2017-08-27T09:48:20.117Z,25.17
2017-08-27T09:49:20.892Z,25.37
2017-08-27T09:50:20.741Z,25.40
2017-08-27T09:51:20.722Z,25.44
2017-08-27T09:52:20.105Z,25.46
2017-08-27T09:53:20.726Z,25.53
2017-08-27T09:54:20.845Z,25.63
2017-08-27T09:55:20.161Z,25.70
2017-08-27T09:56:20.092Z,25.79
2017-08-27T09:57:20.100Z,25.89
2017-08-27T09:58:20.735Z,25.98
2017-08-27T09:59:20.080Z,26.05
2017-08-27T10:00:20.036Z,26.23
2017-08-27T10:01:20.101Z,26.37
2017-08-27T10:02:20.748Z,26.29
2017-08-27T10:03:20.956Z,26.29
2017-08-27T10:04:20.768Z,26.29
2017-08-27T10:05:20.102Z,26.37
2017-08-27T10:06:20.202Z,26.43
2017-08-27T10:07:20.172Z,26.51
2017-08-27T10:08:20.185Z,26.52
2017-08-27T10:09:20.036Z,26.54
2017-08-27T10:10:20.086Z,26.68
2017-08-27T10:11:20.476Z,26.89
2017-08-27T10:12:20.063Z,27.04
2017-08-27T10:13:20.097Z,27.04
2017-08-27T10:14:20.157Z,27.29
2017-08-27T10:15:20.777Z,27.64
2017-08-27T10:16:20.212Z,27.88
2017-08-27T10:17:20.052Z,27.92
2017-08-27T10:18:20.090Z,27.95
2017-08-27T10:19:20.779Z,27.95
2017-08-27T10:20:20.169Z,28.15
2017-08-27T10:21:20.098Z,28.20
2017-08-27T10:22:20.778Z,28.15
2017-08-27T10:23:20.025Z,27.72
2017-08-27T10:24:20.111Z,27.40
2017-08-27T10:25:20.184Z,27.00
2017-08-27T10:26:20.035Z,26.65
2017-08-27T10:27:20.221Z,26.60
2017-08-27T10:28:20.042Z,26.62
2017-08-27T10:29:20.021Z,26.69
2017-08-27T10:30:20.791Z,26.70
2017-08-27T10:31:20.119Z,26.64
2017-08-27T10:32:20.804Z,26.65
2017-08-27T10:33:20.019Z,26.53
2017-08-27T10:34:20.005Z,26.36
2017-08-27T10:35:20.182Z,26.20
2017-08-27T10:36:20.060Z,26.03
2017-08-27T10:37:20.154Z,25.86
2017-08-27T10:38:20.095Z,25.75
2017-08-27T10:39:20.121Z,25.69
2017-08-27T10:40:20.824Z,25.70
2017-08-27T10:41:20.952Z,25.92
2017-08-27T10:42:20.542Z,26.22
2017-08-27T10:43:20.145Z,26.44
2017-08-27T10:44:20.139Z,26.57
2017-08-27T10:45:20.137Z,26.71
2017-08-27T10:46:20.085Z,26.76
2017-08-27T10:47:20.823Z,26.71
2017-08-27T10:48:20.064Z,26.80
2017-08-27T10:49:21.871Z,27.02
2017-08-27T10:50:20.830Z,27.28
2017-08-27T10:51:20.122Z,27.45
2017-08-27T10:52:20.833Z,27.64
2017-08-27T10:53:20.074Z,27.81
2017-08-27T10:54:20.836Z,28.11
2017-08-27T10:55:20.091Z,28.32
2017-08-27T10:56:20.077Z,28.46
2017-08-27T10:57:20.113Z,28.57
2017-08-27T10:58:20.161Z,28.51
2017-08-27T10:59:20.848Z,28.40
2017-08-27T11:00:20.093Z,28.06
2017-08-27T11:01:20.848Z,27.72
2017-08-27T11:02:20.060Z,27.51
2017-08-27T11:03:20.075Z,27.45
2017-08-27T11:04:20.130Z,27.45
2017-08-27T11:05:20.071Z,27.48
2017-08-27T11:06:21.067Z,27.46
2017-08-27T11:07:20.101Z,27.36
2017-08-27T11:08:20.860Z,27.15
2017-08-27T11:09:20.988Z,26.79
2017-08-27T11:10:20.071Z,26.53
2017-08-27T11:11:20.095Z,26.39
2017-08-27T11:12:20.084Z,26.30
2017-08-27T11:13:20.982Z,26.39
2017-08-27T11:14:20.986Z,26.61
2017-08-27T11:15:20.876Z,26.82
2017-08-27T11:16:20.898Z,27.10
2017-08-27T11:17:20.116Z,27.38
2017-08-27T11:18:20.182Z,27.63
2017-08-27T11:19:20.110Z,27.93
2017-08-27T11:20:20.883Z,28.29
2017-08-27T11:21:19.998Z,28.62
2017-08-27T11:22:20.041Z,28.82
2017-08-27T11:23:20.096Z,28.96
2017-08-27T11:24:19.963Z,29.19
2017-08-27T11:25:20.090Z,29.42
2017-08-27T11:26:20.998Z,29.54
2017-08-27T11:27:20.166Z,29.50
2017-08-27T11:28:20.267Z,29.37
2017-08-27T11:29:20.157Z,29.37
2017-08-27T11:30:20.103Z,29.29
2017-08-27T11:31:20.909Z,29.25
2017-08-27T11:32:20.071Z,29.37
2017-08-27T11:33:20.903Z,29.44
2017-08-27T11:34:20.222Z,29.51
2017-08-27T11:35:20.911Z,29.57
2017-08-27T11:36:20.029Z,29.55
2017-08-27T11:37:20.017Z,29.55
2017-08-27T11:38:20.048Z,29.45
2017-08-27T11:39:20.092Z,29.11
2017-08-27T11:40:20.063Z,28.82
2017-08-27T11:41:20.057Z,28.62
2017-08-27T11:42:20.047Z,28.52
2017-08-27T11:43:20.079Z,28.27
2017-08-27T11:44:20.140Z,28.19
2017-08-27T11:45:20.426Z,28.21
2017-08-27T11:46:20.053Z,28.36
2017-08-27T11:47:20.008Z,28.59
2017-08-27T11:48:20.029Z,28.73
2017-08-27T11:49:20.175Z,28.71
2017-08-27T11:50:20.434Z,28.73
2017-08-27T11:51:20.084Z,28.78
2017-08-27T11:52:20.090Z,28.47
2017-08-27T11:53:20.555Z,28.07
2017-08-27T11:54:21.067Z,27.85
2017-08-27T11:55:20.017Z,27.73
2017-08-27T11:56:20.052Z,27.79
2017-08-27T11:57:19.998Z,27.79
2017-08-27T11:58:21.453Z,27.87
2017-08-27T11:59:20.106Z,27.92
2017-08-27T12:00:20.454Z,27.87
2017-08-27T12:01:20.014Z,27.72
2017-08-27T12:02:20.004Z,27.65
2017-08-27T12:03:20.072Z,27.79
2017-08-27T12:04:20.110Z,27.88
2017-08-27T12:05:21.117Z,28.03
2017-08-27T12:06:20.106Z,28.22
2017-08-27T12:07:20.466Z,28.40
2017-08-27T12:08:19.982Z,28.60
2017-08-27T12:09:20.309Z,28.75
2017-08-27T12:10:20.029Z,28.78
2017-08-27T12:11:20.062Z,28.79
2017-08-27T12:12:20.474Z,28.85
2017-08-27T12:13:20.307Z,28.97
2017-08-27T12:14:20.593Z,29.09
2017-08-27T12:15:20.074Z,29.06
2017-08-27T12:16:20.126Z,29.11
2017-08-27T12:17:19.997Z,29.18
2017-08-27T12:18:20.121Z,29.31
2017-08-27T12:19:20.103Z,29.36
2017-08-27T12:20:19.988Z,29.43
2017-08-27T12:21:20.588Z,29.42
2017-08-27T12:22:20.492Z,29.44
2017-08-27T12:23:20.117Z,29.43
2017-08-27T12:24:19.979Z,29.39
2017-08-27T12:25:20.242Z,29.43
2017-08-27T12:26:20.500Z,29.47
2017-08-27T12:27:20.030Z,29.37
2017-08-27T12:28:20.004Z,29.21
2017-08-27T12:29:20.072Z,29.23
2017-08-27T12:30:20.021Z,29.28
2017-08-27T12:31:20.712Z,29.26
2017-08-27T12:32:20.089Z,29.18
2017-08-27T12:33:20.011Z,29.13
2017-08-27T12:34:20.048Z,29.03
2017-08-27T12:35:20.110Z,28.86
2017-08-27T12:36:20.088Z,28.81
2017-08-27T12:37:20.047Z,28.80
2017-08-27T12:38:20.011Z,28.82
2017-08-27T12:39:21.086Z,28.92
2017-08-27T12:40:20.029Z,29.02
2017-08-27T12:41:20.526Z,29.11
2017-08-27T12:42:20.047Z,29.09
2017-08-27T12:43:20.619Z,28.96
2017-08-27T12:44:20.095Z,28.72
2017-08-27T12:45:20.024Z,28.43
2017-08-27T12:46:19.976Z,28.17
2017-08-27T12:47:20.129Z,27.90
2017-08-27T12:48:20.069Z,27.68
2017-08-27T12:49:20.117Z,27.44
2017-08-27T12:50:20.061Z,27.28
2017-08-27T12:51:19.950Z,27.12
2017-08-27T12:52:20.004Z,27.10